sensor_id;sensor_type;location;lat;lon;timestamp;temperature;humidity
70271;SHT31;57680;54.292;18.598;2023-05-07T00:01:22;6.24;78.81
70271;SHT31;57680;54.292;18.598;2023-05-07T00:03:47;6.27;78.48
70271;SHT31;57680;54.292;18.598;2023-05-07T00:06:12;6.31;77.99
70271;SHT31;57680;54.292;18.598;2023-05-07T00:08:38;6.33;77.64
70271;SHT31;57680;54.292;18.598;2023-05-07T00:11:04;6.24;77.31
70271;SHT31;57680;54.292;18.598;2023-05-07T00:13:29;6.23;77.49
70271;SHT31;57680;54.292;18.598;2023-05-07T00:15:54;6.25;77.00
70271;SHT31;57680;54.292;18.598;2023-05-07T00:18:20;6.30;76.17
70271;SHT31;57680;54.292;18.598;2023-05-07T00:20:45;6.28;75.98
70271;SHT31;57680;54.292;18.598;2023-05-07T00:23:10;6.28;75.85
70271;SHT31;57680;54.292;18.598;2023-05-07T00:25:36;6.23;75.52
70271;SHT31;57680;54.292;18.598;2023-05-07T00:28:01;6.18;75.49
70271;SHT31;57680;54.292;18.598;2023-05-07T00:30:27;6.13;75.42
70271;SHT31;57680;54.292;18.598;2023-05-07T00:32:52;6.13;75.10
70271;SHT31;57680;54.292;18.598;2023-05-07T00:35:17;6.10;75.13
70271;SHT31;57680;54.292;18.598;2023-05-07T00:37:43;6.07;74.89
70271;SHT31;57680;54.292;18.598;2023-05-07T00:40:08;6.06;74.20
70271;SHT31;57680;54.292;18.598;2023-05-07T00:42:34;6.03;73.94
70271;SHT31;57680;54.292;18.598;2023-05-07T00:44:59;5.99;73.99
70271;SHT31;57680;54.292;18.598;2023-05-07T00:47:25;5.93;74.03
70271;SHT31;57680;54.292;18.598;2023-05-07T00:49:51;5.85;74.20
70271;SHT31;57680;54.292;18.598;2023-05-07T00:52:17;5.80;74.43
70271;SHT31;57680;54.292;18.598;2023-05-07T00:54:44;5.74;74.38
70271;SHT31;57680;54.292;18.598;2023-05-07T00:57:10;5.67;74.44
70271;SHT31;57680;54.292;18.598;2023-05-07T00:59:36;5.60;74.55
70271;SHT31;57680;54.292;18.598;2023-05-07T01:02:01;5.53;74.77
70271;SHT31;57680;54.292;18.598;2023-05-07T01:04:27;5.51;74.77
70271;SHT31;57680;54.292;18.598;2023-05-07T01:06:55;5.46;74.63
70271;SHT31;57680;54.292;18.598;2023-05-07T01:09:22;5.46;74.38
70271;SHT31;57680;54.292;18.598;2023-05-07T01:11:49;5.46;74.18
70271;SHT31;57680;54.292;18.598;2023-05-07T01:14:15;5.41;74.25
70271;SHT31;57680;54.292;18.598;2023-05-07T01:16:40;5.36;74.36
70271;SHT31;57680;54.292;18.598;2023-05-07T01:19:06;5.35;74.46
70271;SHT31;57680;54.292;18.598;2023-05-07T01:21:33;5.42;74.06
70271;SHT31;57680;54.292;18.598;2023-05-07T01:23:58;5.49;73.40
70271;SHT31;57680;54.292;18.598;2023-05-07T01:26:24;5.45;73.48
70271;SHT31;57680;54.292;18.598;2023-05-07T01:28:50;5.46;73.39
70271;SHT31;57680;54.292;18.598;2023-05-07T01:31:16;5.42;73.43
70271;SHT31;57680;54.292;18.598;2023-05-07T01:33:43;5.31;73.43
70271;SHT31;57680;54.292;18.598;2023-05-07T01:36:09;5.24;73.85
70271;SHT31;57680;54.292;18.598;2023-05-07T01:38:37;5.14;74.20
70271;SHT31;57680;54.292;18.598;2023-05-07T01:41:03;5.12;74.68
70271;SHT31;57680;54.292;18.598;2023-05-07T01:43:30;5.05;75.20
70271;SHT31;57680;54.292;18.598;2023-05-07T01:45:57;5.07;75.47
70271;SHT31;57680;54.292;18.598;2023-05-07T01:48:24;5.07;75.69
70271;SHT31;57680;54.292;18.598;2023-05-07T01:50:50;5.11;75.55
70271;SHT31;57680;54.292;18.598;2023-05-07T01:53:16;5.07;75.66
70271;SHT31;57680;54.292;18.598;2023-05-07T01:55:41;5.05;75.91
70271;SHT31;57680;54.292;18.598;2023-05-07T01:58:06;5.01;76.10
70271;SHT31;57680;54.292;18.598;2023-05-07T02:00:32;5.01;76.02
70271;SHT31;57680;54.292;18.598;2023-05-07T02:02:57;5.03;75.85
70271;SHT31;57680;54.292;18.598;2023-05-07T02:05:23;4.97;76.16
70271;SHT31;57680;54.292;18.598;2023-05-07T02:07:49;4.95;76.13
70271;SHT31;57680;54.292;18.598;2023-05-07T02:10:14;4.93;76.13
70271;SHT31;57680;54.292;18.598;2023-05-07T02:12:39;4.85;76.18
70271;SHT31;57680;54.292;18.598;2023-05-07T02:15:05;4.81;76.77
70271;SHT31;57680;54.292;18.598;2023-05-07T02:17:31;4.87;75.96
70271;SHT31;57680;54.292;18.598;2023-05-07T02:19:56;4.73;77.22
70271;SHT31;57680;54.292;18.598;2023-05-07T02:22:21;4.77;77.05
70271;SHT31;57680;54.292;18.598;2023-05-07T02:24:47;4.81;76.71
70271;SHT31;57680;54.292;18.598;2023-05-07T02:27:12;4.87;76.62
70271;SHT31;57680;54.292;18.598;2023-05-07T02:29:38;4.88;76.48
70271;SHT31;57680;54.292;18.598;2023-05-07T02:32:03;4.87;76.24
70271;SHT31;57680;54.292;18.598;2023-05-07T02:34:29;4.91;76.27
70271;SHT31;57680;54.292;18.598;2023-05-07T02:36:54;4.85;76.45
70271;SHT31;57680;54.292;18.598;2023-05-07T02:39:19;4.87;76.45
70271;SHT31;57680;54.292;18.598;2023-05-07T02:41:45;4.87;76.30
70271;SHT31;57680;54.292;18.598;2023-05-07T02:44:10;4.79;76.23
70271;SHT31;57680;54.292;18.598;2023-05-07T02:46:36;4.79;76.05
70271;SHT31;57680;54.292;18.598;2023-05-07T02:49:01;4.74;75.69
70271;SHT31;57680;54.292;18.598;2023-05-07T02:51:27;4.63;75.58
70271;SHT31;57680;54.292;18.598;2023-05-07T02:53:52;4.31;76.66
70271;SHT31;57680;54.292;18.598;2023-05-07T02:56:18;4.18;78.47
70271;SHT31;57680;54.292;18.598;2023-05-07T02:58:43;4.21;78.17
70271;SHT31;57680;54.292;18.598;2023-05-07T03:01:09;4.35;77.60
70271;SHT31;57680;54.292;18.598;2023-05-07T03:03:35;4.42;77.45
70271;SHT31;57680;54.292;18.598;2023-05-07T03:06:01;4.54;76.47
70271;SHT31;57680;54.292;18.598;2023-05-07T03:08:26;4.76;76.57
70271;SHT31;57680;54.292;18.598;2023-05-07T03:10:52;5.07;75.54
70271;SHT31;57680;54.292;18.598;2023-05-07T03:13:18;5.35;74.34
70271;SHT31;57680;54.292;18.598;2023-05-07T03:15:43;5.56;74.24
70271;SHT31;57680;54.292;18.598;2023-05-07T03:18:09;5.85;73.28
70271;SHT31;57680;54.292;18.598;2023-05-07T03:20:34;6.17;73.15
70271;SHT31;57680;54.292;18.598;2023-05-07T03:23:00;6.41;71.72
70271;SHT31;57680;54.292;18.598;2023-05-07T03:25:25;6.78;70.87
70271;SHT31;57680;54.292;18.598;2023-05-07T03:27:51;7.06;69.61
70271;SHT31;57680;54.292;18.598;2023-05-07T03:30:16;7.28;68.60
70271;SHT31;57680;54.292;18.598;2023-05-07T03:32:41;7.50;67.54
70271;SHT31;57680;54.292;18.598;2023-05-07T03:35:07;7.79;66.18
70271;SHT31;57680;54.292;18.598;2023-05-07T03:37:33;8.03;64.60
70271;SHT31;57680;54.292;18.598;2023-05-07T03:39:58;8.37;64.47
70271;SHT31;57680;54.292;18.598;2023-05-07T03:42:23;8.65;63.46
70271;SHT31;57680;54.292;18.598;2023-05-07T03:44:49;8.89;62.25
70271;SHT31;57680;54.292;18.598;2023-05-07T03:47:15;9.29;61.06
70271;SHT31;57680;54.292;18.598;2023-05-07T03:49:40;9.60;60.03
70271;SHT31;57680;54.292;18.598;2023-05-07T03:52:06;9.86;58.51
70271;SHT31;57680;54.292;18.598;2023-05-07T03:54:31;10.05;58.33
70271;SHT31;57680;54.292;18.598;2023-05-07T03:56:57;10.30;57.97
70271;SHT31;57680;54.292;18.598;2023-05-07T03:59:22;10.52;57.58
70271;SHT31;57680;54.292;18.598;2023-05-07T04:01:47;10.75;56.85
70271;SHT31;57680;54.292;18.598;2023-05-07T04:04:13;11.10;56.76
70271;SHT31;57680;54.292;18.598;2023-05-07T04:06:38;11.35;55.58
70271;SHT31;57680;54.292;18.598;2023-05-07T04:09:04;11.67;55.89
70271;SHT31;57680;54.292;18.598;2023-05-07T04:11:29;11.95;55.12
70271;SHT31;57680;54.292;18.598;2023-05-07T04:13:55;12.29;55.43
70271;SHT31;57680;54.292;18.598;2023-05-07T04:16:20;12.50;54.76
70271;SHT31;57680;54.292;18.598;2023-05-07T04:18:45;12.80;53.59
70271;SHT31;57680;54.292;18.598;2023-05-07T04:21:18;13.08;51.66
70271;SHT31;57680;54.292;18.598;2023-05-07T04:23:45;13.45;50.55
70271;SHT31;57680;54.292;18.598;2023-05-07T04:26:10;13.53;50.37
70271;SHT31;57680;54.292;18.598;2023-05-07T04:28:36;13.56;50.52
70271;SHT31;57680;54.292;18.598;2023-05-07T04:31:01;13.65;49.67
70271;SHT31;57680;54.292;18.598;2023-05-07T04:33:27;13.48;49.90
70271;SHT31;57680;54.292;18.598;2023-05-07T04:35:52;13.34;51.53
70271;SHT31;57680;54.292;18.598;2023-05-07T04:38:18;13.35;50.88
70271;SHT31;57680;54.292;18.598;2023-05-07T04:40:44;13.49;51.07
70271;SHT31;57680;54.292;18.598;2023-05-07T04:43:10;13.77;51.54
70271;SHT31;57680;54.292;18.598;2023-05-07T04:45:36;14.06;49.88
70271;SHT31;57680;54.292;18.598;2023-05-07T04:48:02;14.02;47.32
70271;SHT31;57680;54.292;18.598;2023-05-07T04:50:27;14.00;47.70
70271;SHT31;57680;54.292;18.598;2023-05-07T04:52:53;14.21;47.08
70271;SHT31;57680;54.292;18.598;2023-05-07T04:55:18;14.49;46.01
70271;SHT31;57680;54.292;18.598;2023-05-07T04:57:44;14.65;45.45
70271;SHT31;57680;54.292;18.598;2023-05-07T05:00:09;14.86;44.30
70271;SHT31;57680;54.292;18.598;2023-05-07T05:02:35;14.61;43.46
70271;SHT31;57680;54.292;18.598;2023-05-07T05:05:01;14.83;41.69
70271;SHT31;57680;54.292;18.598;2023-05-07T05:07:26;14.85;41.57
70271;SHT31;57680;54.292;18.598;2023-05-07T05:09:52;14.89;40.78
70271;SHT31;57680;54.292;18.598;2023-05-07T05:12:17;15.18;40.29
70271;SHT31;57680;54.292;18.598;2023-05-07T05:14:43;15.39;39.45
70271;SHT31;57680;54.292;18.598;2023-05-07T05:17:08;14.91;43.10
70271;SHT31;57680;54.292;18.598;2023-05-07T05:19:33;15.02;42.67
70271;SHT31;57680;54.292;18.598;2023-05-07T05:21:59;15.24;41.90
70271;SHT31;57680;54.292;18.598;2023-05-07T05:24:24;15.61;39.37
70271;SHT31;57680;54.292;18.598;2023-05-07T05:26:50;15.57;39.22
70271;SHT31;57680;54.292;18.598;2023-05-07T05:29:18;15.50;38.74
70271;SHT31;57680;54.292;18.598;2023-05-07T05:31:43;15.23;38.79
70271;SHT31;57680;54.292;18.598;2023-05-07T05:34:09;14.79;40.54
70271;SHT31;57680;54.292;18.598;2023-05-07T05:36:34;14.30;40.61
70271;SHT31;57680;54.292;18.598;2023-05-07T05:39:00;14.17;40.22
70271;SHT31;57680;54.292;18.598;2023-05-07T05:41:25;14.58;38.62
70271;SHT31;57680;54.292;18.598;2023-05-07T05:43:51;14.68;41.87
70271;SHT31;57680;54.292;18.598;2023-05-07T05:46:16;14.52;42.32
70271;SHT31;57680;54.292;18.598;2023-05-07T05:48:41;14.96;41.55
70271;SHT31;57680;54.292;18.598;2023-05-07T05:51:07;15.19;39.96
70271;SHT31;57680;54.292;18.598;2023-05-07T05:53:32;15.53;39.72
70271;SHT31;57680;54.292;18.598;2023-05-07T05:55:58;15.55;38.75
70271;SHT31;57680;54.292;18.598;2023-05-07T05:58:24;15.33;39.59
70271;SHT31;57680;54.292;18.598;2023-05-07T06:00:49;15.05;38.98
70271;SHT31;57680;54.292;18.598;2023-05-07T06:03:15;14.96;38.47
70271;SHT31;57680;54.292;18.598;2023-05-07T06:05:40;14.65;40.76
70271;SHT31;57680;54.292;18.598;2023-05-07T06:08:05;14.88;38.25
70271;SHT31;57680;54.292;18.598;2023-05-07T06:10:31;14.64;40.31
70271;SHT31;57680;54.292;18.598;2023-05-07T06:12:57;14.60;39.92
70271;SHT31;57680;54.292;18.598;2023-05-07T06:15:22;14.65;38.39
70271;SHT31;57680;54.292;18.598;2023-05-07T06:17:48;14.96;41.97
70271;SHT31;57680;54.292;18.598;2023-05-07T06:20:13;14.89;39.81
70271;SHT31;57680;54.292;18.598;2023-05-07T06:22:39;14.62;39.44
70271;SHT31;57680;54.292;18.598;2023-05-07T06:25:04;14.62;39.15
70271;SHT31;57680;54.292;18.598;2023-05-07T06:27:30;14.20;40.93
70271;SHT31;57680;54.292;18.598;2023-05-07T06:29:55;14.44;42.70
70271;SHT31;57680;54.292;18.598;2023-05-07T06:32:21;14.03;40.39
70271;SHT31;57680;54.292;18.598;2023-05-07T06:34:46;13.94;41.25
70271;SHT31;57680;54.292;18.598;2023-05-07T06:37:12;13.83;42.63
70271;SHT31;57680;54.292;18.598;2023-05-07T06:39:37;13.73;43.27
70271;SHT31;57680;54.292;18.598;2023-05-07T06:42:02;13.56;42.37
70271;SHT31;57680;54.292;18.598;2023-05-07T06:44:28;13.59;44.12
70271;SHT31;57680;54.292;18.598;2023-05-07T06:46:53;13.26;43.78
70271;SHT31;57680;54.292;18.598;2023-05-07T06:49:19;13.38;43.54
70271;SHT31;57680;54.292;18.598;2023-05-07T06:51:44;13.53;43.73
70271;SHT31;57680;54.292;18.598;2023-05-07T06:54:10;13.22;42.24
70271;SHT31;57680;54.292;18.598;2023-05-07T06:56:35;13.36;43.81
70271;SHT31;57680;54.292;18.598;2023-05-07T06:59:02;13.26;42.56
70271;SHT31;57680;54.292;18.598;2023-05-07T07:01:28;13.14;44.45
70271;SHT31;57680;54.292;18.598;2023-05-07T07:03:55;13.07;43.64
70271;SHT31;57680;54.292;18.598;2023-05-07T07:06:20;13.04;43.56
70271;SHT31;57680;54.292;18.598;2023-05-07T07:08:46;12.84;44.44
70271;SHT31;57680;54.292;18.598;2023-05-07T07:11:11;13.28;45.34
70271;SHT31;57680;54.292;18.598;2023-05-07T07:13:37;13.53;45.28
70271;SHT31;57680;54.292;18.598;2023-05-07T07:16:03;13.59;43.37
70271;SHT31;57680;54.292;18.598;2023-05-07T07:18:28;13.67;43.56
70271;SHT31;57680;54.292;18.598;2023-05-07T07:20:53;13.65;42.90
70271;SHT31;57680;54.292;18.598;2023-05-07T07:23:19;13.77;42.17
70271;SHT31;57680;54.292;18.598;2023-05-07T07:25:45;13.87;42.79
70271;SHT31;57680;54.292;18.598;2023-05-07T07:28:10;13.58;40.40
70271;SHT31;57680;54.292;18.598;2023-05-07T07:30:36;13.65;42.99
70271;SHT31;57680;54.292;18.598;2023-05-07T07:33:01;13.36;42.76
70271;SHT31;57680;54.292;18.598;2023-05-07T07:35:27;13.39;42.71
70271;SHT31;57680;54.292;18.598;2023-05-07T07:37:53;13.61;41.96
70271;SHT31;57680;54.292;18.598;2023-05-07T07:40:18;13.58;42.10
70271;SHT31;57680;54.292;18.598;2023-05-07T07:42:44;13.59;42.21
70271;SHT31;57680;54.292;18.598;2023-05-07T07:45:09;13.96;44.40
70271;SHT31;57680;54.292;18.598;2023-05-07T07:47:35;13.82;41.15
70271;SHT31;57680;54.292;18.598;2023-05-07T07:50:00;13.63;40.37
70271;SHT31;57680;54.292;18.598;2023-05-07T07:52:26;13.36;42.24
70271;SHT31;57680;54.292;18.598;2023-05-07T07:54:51;13.51;43.94
70271;SHT31;57680;54.292;18.598;2023-05-07T07:57:16;13.91;43.17
70271;SHT31;57680;54.292;18.598;2023-05-07T07:59:42;14.07;39.97
70271;SHT31;57680;54.292;18.598;2023-05-07T08:02:07;13.91;40.78
70271;SHT31;57680;54.292;18.598;2023-05-07T08:04:33;14.02;38.50
70271;SHT31;57680;54.292;18.598;2023-05-07T08:06:58;14.31;40.92
70271;SHT31;57680;54.292;18.598;2023-05-07T08:09:24;14.55;38.11
70271;SHT31;57680;54.292;18.598;2023-05-07T08:11:49;14.38;37.41
70271;SHT31;57680;54.292;18.598;2023-05-07T08:14:14;14.76;40.49
70271;SHT31;57680;54.292;18.598;2023-05-07T08:16:40;14.42;34.46
70271;SHT31;57680;54.292;18.598;2023-05-07T08:19:05;14.48;37.03
70271;SHT31;57680;54.292;18.598;2023-05-07T08:21:31;14.64;38.66
70271;SHT31;57680;54.292;18.598;2023-05-07T08:23:57;14.83;38.69
70271;SHT31;57680;54.292;18.598;2023-05-07T08:26:22;14.42;37.01
70271;SHT31;57680;54.292;18.598;2023-05-07T08:28:48;14.33;35.51
70271;SHT31;57680;54.292;18.598;2023-05-07T08:31:13;14.52;37.15
70271;SHT31;57680;54.292;18.598;2023-05-07T08:33:39;14.75;38.02
70271;SHT31;57680;54.292;18.598;2023-05-07T08:36:04;14.98;37.52
70271;SHT31;57680;54.292;18.598;2023-05-07T08:38:30;14.74;34.43
70271;SHT31;57680;54.292;18.598;2023-05-07T08:40:56;14.42;35.54
70271;SHT31;57680;54.292;18.598;2023-05-07T08:43:26;14.82;36.42
70271;SHT31;57680;54.292;18.598;2023-05-07T08:45:53;14.83;35.68
70271;SHT31;57680;54.292;18.598;2023-05-07T08:48:21;14.60;34.81
70271;SHT31;57680;54.292;18.598;2023-05-07T08:50:49;14.44;34.63
70271;SHT31;57680;54.292;18.598;2023-05-07T08:53:16;14.61;33.74
70271;SHT31;57680;54.292;18.598;2023-05-07T08:55:41;14.71;35.20
70271;SHT31;57680;54.292;18.598;2023-05-07T08:58:07;14.86;34.94
70271;SHT31;57680;54.292;18.598;2023-05-07T09:00:32;15.00;35.12
70271;SHT31;57680;54.292;18.598;2023-05-07T09:02:58;15.00;36.29
70271;SHT31;57680;54.292;18.598;2023-05-07T09:05:23;14.96;34.48
70271;SHT31;57680;54.292;18.598;2023-05-07T09:07:49;14.69;34.94
70271;SHT31;57680;54.292;18.598;2023-05-07T09:10:14;14.57;38.11
70271;SHT31;57680;54.292;18.598;2023-05-07T09:12:39;14.61;37.52
70271;SHT31;57680;54.292;18.598;2023-05-07T09:15:06;14.79;39.67
70271;SHT31;57680;54.292;18.598;2023-05-07T09:17:31;14.78;39.91
70271;SHT31;57680;54.292;18.598;2023-05-07T09:20:02;14.51;40.29
70271;SHT31;57680;54.292;18.598;2023-05-07T09:22:29;14.37;41.77
70271;SHT31;57680;54.292;18.598;2023-05-07T09:24:56;14.18;42.61
70271;SHT31;57680;54.292;18.598;2023-05-07T09:27:21;14.06;41.91
70271;SHT31;57680;54.292;18.598;2023-05-07T09:29:47;14.07;42.76
70271;SHT31;57680;54.292;18.598;2023-05-07T09:32:12;14.03;43.06
70271;SHT31;57680;54.292;18.598;2023-05-07T09:34:39;14.16;43.45
70271;SHT31;57680;54.292;18.598;2023-05-07T09:37:06;14.20;43.66
70271;SHT31;57680;54.292;18.598;2023-05-07T09:39:46;13.99;44.07
70271;SHT31;57680;54.292;18.598;2023-05-07T09:42:11;14.00;42.58
70271;SHT31;57680;54.292;18.598;2023-05-07T09:44:38;13.96;41.65
70271;SHT31;57680;54.292;18.598;2023-05-07T09:47:06;13.94;40.02
70271;SHT31;57680;54.292;18.598;2023-05-07T09:49:36;13.83;42.03
70271;SHT31;57680;54.292;18.598;2023-05-07T09:52:04;13.93;41.56
70271;SHT31;57680;54.292;18.598;2023-05-07T09:54:30;13.79;41.49
70271;SHT31;57680;54.292;18.598;2023-05-07T09:56:56;13.82;41.77
70271;SHT31;57680;54.292;18.598;2023-05-07T09:59:22;13.87;40.93
70271;SHT31;57680;54.292;18.598;2023-05-07T10:01:48;13.87;39.32
70271;SHT31;57680;54.292;18.598;2023-05-07T10:04:14;14.00;41.36
70271;SHT31;57680;54.292;18.598;2023-05-07T10:06:40;14.02;39.65
70271;SHT31;57680;54.292;18.598;2023-05-07T10:09:06;14.20;40.29
70271;SHT31;57680;54.292;18.598;2023-05-07T10:11:35;14.38;37.17
70271;SHT31;57680;54.292;18.598;2023-05-07T10:14:04;14.46;36.00
70271;SHT31;57680;54.292;18.598;2023-05-07T10:16:34;14.38;37.92
70271;SHT31;57680;54.292;18.598;2023-05-07T10:19:04;14.45;38.84
70271;SHT31;57680;54.292;18.598;2023-05-07T10:21:30;14.27;38.59
70271;SHT31;57680;54.292;18.598;2023-05-07T10:24:04;14.23;39.84
70271;SHT31;57680;54.292;18.598;2023-05-07T10:26:32;14.37;39.17
70271;SHT31;57680;54.292;18.598;2023-05-07T10:29:07;14.34;39.67
70271;SHT31;57680;54.292;18.598;2023-05-07T10:34:11;14.34;35.55
70271;SHT31;57680;54.292;18.598;2023-05-07T10:36:38;14.38;39.19
70271;SHT31;57680;54.292;18.598;2023-05-07T10:39:05;14.54;37.69
70271;SHT31;57680;54.292;18.598;2023-05-07T10:41:31;14.51;36.78
70271;SHT31;57680;54.292;18.598;2023-05-07T10:43:58;14.48;36.90
70271;SHT31;57680;54.292;18.598;2023-05-07T10:46:23;14.33;35.60
70271;SHT31;57680;54.292;18.598;2023-05-07T10:51:27;14.33;36.42
70271;SHT31;57680;54.292;18.598;2023-05-07T10:56:40;14.48;36.87
70271;SHT31;57680;54.292;18.598;2023-05-07T11:01:53;14.68;35.85
70271;SHT31;57680;54.292;18.598;2023-05-07T11:04:19;14.85;36.56
70271;SHT31;57680;54.292;18.598;2023-05-07T11:12:17;14.74;35.18
70271;SHT31;57680;54.292;18.598;2023-05-07T11:14:44;14.75;35.85
70271;SHT31;57680;54.292;18.598;2023-05-07T11:17:10;14.30;33.77
70271;SHT31;57680;54.292;18.598;2023-05-07T11:19:53;14.18;34.71
70271;SHT31;57680;54.292;18.598;2023-05-07T11:24:59;14.34;37.59
70271;SHT31;57680;54.292;18.598;2023-05-07T11:27:25;14.28;39.62
70271;SHT31;57680;54.292;18.598;2023-05-07T11:29:51;14.30;38.83
70271;SHT31;57680;54.292;18.598;2023-05-07T11:32:27;14.20;39.14
70271;SHT31;57680;54.292;18.598;2023-05-07T11:34:58;14.02;38.21
70271;SHT31;57680;54.292;18.598;2023-05-07T11:37:25;14.13;39.34
70271;SHT31;57680;54.292;18.598;2023-05-07T11:39:51;14.02;37.79
70271;SHT31;57680;54.292;18.598;2023-05-07T11:42:32;14.03;39.57
70271;SHT31;57680;54.292;18.598;2023-05-07T11:44:58;13.96;37.89
70271;SHT31;57680;54.292;18.598;2023-05-07T11:47:24;13.82;38.13
70271;SHT31;57680;54.292;18.598;2023-05-07T11:49:51;13.65;37.63
70271;SHT31;57680;54.292;18.598;2023-05-07T11:52:18;13.74;38.28
70271;SHT31;57680;54.292;18.598;2023-05-07T11:54:51;13.61;37.92
70271;SHT31;57680;54.292;18.598;2023-05-07T11:57:17;13.56;37.73
70271;SHT31;57680;54.292;18.598;2023-05-07T11:59:43;13.61;37.57
70271;SHT31;57680;54.292;18.598;2023-05-07T12:02:09;13.70;39.22
70271;SHT31;57680;54.292;18.598;2023-05-07T12:04:34;13.73;37.07
70271;SHT31;57680;54.292;18.598;2023-05-07T12:07:00;13.80;38.38
70271;SHT31;57680;54.292;18.598;2023-05-07T12:09:25;13.76;38.30
70271;SHT31;57680;54.292;18.598;2023-05-07T12:11:51;13.65;38.03
70271;SHT31;57680;54.292;18.598;2023-05-07T12:14:17;13.63;37.64
70271;SHT31;57680;54.292;18.598;2023-05-07T12:16:43;13.65;37.19
70271;SHT31;57680;54.292;18.598;2023-05-07T12:19:09;13.87;37.37
70271;SHT31;57680;54.292;18.598;2023-05-07T12:21:35;13.97;38.56
70271;SHT31;57680;54.292;18.598;2023-05-07T12:24:01;13.91;38.48
70271;SHT31;57680;54.292;18.598;2023-05-07T12:26:27;13.94;38.21
70271;SHT31;57680;54.292;18.598;2023-05-07T12:28:52;13.80;38.46
70271;SHT31;57680;54.292;18.598;2023-05-07T12:31:18;13.83;38.76
70271;SHT31;57680;54.292;18.598;2023-05-07T12:33:43;13.80;37.17
70271;SHT31;57680;54.292;18.598;2023-05-07T12:36:12;13.94;38.95
70271;SHT31;57680;54.292;18.598;2023-05-07T12:38:38;14.03;38.79
70271;SHT31;57680;54.292;18.598;2023-05-07T12:41:05;13.89;37.77
70271;SHT31;57680;54.292;18.598;2023-05-07T12:43:31;13.69;38.78
70271;SHT31;57680;54.292;18.598;2023-05-07T12:46:00;13.70;37.67
70271;SHT31;57680;54.292;18.598;2023-05-07T12:48:25;13.72;37.53
70271;SHT31;57680;54.292;18.598;2023-05-07T12:50:52;13.56;38.64
70271;SHT31;57680;54.292;18.598;2023-05-07T12:53:21;13.70;40.63
70271;SHT31;57680;54.292;18.598;2023-05-07T12:55:52;13.66;40.06
70271;SHT31;57680;54.292;18.598;2023-05-07T13:00:52;13.51;38.50
70271;SHT31;57680;54.292;18.598;2023-05-07T13:03:29;13.46;36.86
70271;SHT31;57680;54.292;18.598;2023-05-07T13:05:57;13.45;38.88
70271;SHT31;57680;54.292;18.598;2023-05-07T13:08:36;13.35;39.32
70271;SHT31;57680;54.292;18.598;2023-05-07T13:11:02;13.56;39.96
70271;SHT31;57680;54.292;18.598;2023-05-07T13:13:28;13.59;38.54
70271;SHT31;57680;54.292;18.598;2023-05-07T13:15:54;13.53;38.98
70271;SHT31;57680;54.292;18.598;2023-05-07T13:18:19;13.41;40.54
70271;SHT31;57680;54.292;18.598;2023-05-07T13:20:45;13.36;40.25
70271;SHT31;57680;54.292;18.598;2023-05-07T13:23:11;13.48;40.58
70271;SHT31;57680;54.292;18.598;2023-05-07T13:25:36;13.39;39.30
70271;SHT31;57680;54.292;18.598;2023-05-07T13:28:02;13.31;41.16
70271;SHT31;57680;54.292;18.598;2023-05-07T13:30:27;13.34;38.96
70271;SHT31;57680;54.292;18.598;2023-05-07T13:32:55;13.29;40.01
70271;SHT31;57680;54.292;18.598;2023-05-07T13:35:21;13.18;38.31
70271;SHT31;57680;54.292;18.598;2023-05-07T13:37:47;13.14;40.36
70271;SHT31;57680;54.292;18.598;2023-05-07T13:40:12;13.36;40.36
70271;SHT31;57680;54.292;18.598;2023-05-07T13:42:37;13.35;39.88
70271;SHT31;57680;54.292;18.598;2023-05-07T13:45:03;13.41;39.05
70271;SHT31;57680;54.292;18.598;2023-05-07T13:47:28;13.35;38.28
70271;SHT31;57680;54.292;18.598;2023-05-07T13:49:54;13.24;38.65
70271;SHT31;57680;54.292;18.598;2023-05-07T13:52:19;13.14;39.80
70271;SHT31;57680;54.292;18.598;2023-05-07T13:54:45;13.03;39.34
70271;SHT31;57680;54.292;18.598;2023-05-07T13:57:10;12.95;38.87
70271;SHT31;57680;54.292;18.598;2023-05-07T13:59:36;12.91;40.24
70271;SHT31;57680;54.292;18.598;2023-05-07T14:02:01;12.94;39.18
70271;SHT31;57680;54.292;18.598;2023-05-07T14:04:27;12.98;39.31
70271;SHT31;57680;54.292;18.598;2023-05-07T14:06:52;12.95;39.30
70271;SHT31;57680;54.292;18.598;2023-05-07T14:09:17;12.94;39.97
70271;SHT31;57680;54.292;18.598;2023-05-07T14:11:42;12.83;38.59
70271;SHT31;57680;54.292;18.598;2023-05-07T14:14:08;12.85;38.92
70271;SHT31;57680;54.292;18.598;2023-05-07T14:16:33;12.81;38.95
70271;SHT31;57680;54.292;18.598;2023-05-07T14:18:59;12.84;39.04
70271;SHT31;57680;54.292;18.598;2023-05-07T14:21:24;12.80;39.01
70271;SHT31;57680;54.292;18.598;2023-05-07T14:23:49;12.76;38.13
70271;SHT31;57680;54.292;18.598;2023-05-07T14:26:15;12.60;38.18
70271;SHT31;57680;54.292;18.598;2023-05-07T14:28:40;12.66;39.15
70271;SHT31;57680;54.292;18.598;2023-05-07T14:31:06;12.73;39.14
70271;SHT31;57680;54.292;18.598;2023-05-07T14:33:31;12.66;38.15
70271;SHT31;57680;54.292;18.598;2023-05-07T14:35:57;12.56;39.30
70271;SHT31;57680;54.292;18.598;2023-05-07T14:38:22;12.64;40.16
70271;SHT31;57680;54.292;18.598;2023-05-07T14:40:48;12.61;38.93
70271;SHT31;57680;54.292;18.598;2023-05-07T14:43:13;12.61;38.98
70271;SHT31;57680;54.292;18.598;2023-05-07T14:45:39;12.47;38.55
70271;SHT31;57680;54.292;18.598;2023-05-07T14:48:04;12.37;39.53
70271;SHT31;57680;54.292;18.598;2023-05-07T14:50:30;12.32;38.93
70271;SHT31;57680;54.292;18.598;2023-05-07T14:52:55;12.33;39.46
70271;SHT31;57680;54.292;18.598;2023-05-07T14:55:21;12.30;39.40
70271;SHT31;57680;54.292;18.598;2023-05-07T14:57:46;12.26;39.20
70271;SHT31;57680;54.292;18.598;2023-05-07T15:00:12;12.23;39.07
70271;SHT31;57680;54.292;18.598;2023-05-07T15:02:38;12.22;39.36
70271;SHT31;57680;54.292;18.598;2023-05-07T15:05:04;12.26;40.47
70271;SHT31;57680;54.292;18.598;2023-05-07T15:07:30;12.33;39.38
70271;SHT31;57680;54.292;18.598;2023-05-07T15:09:55;12.39;40.60
70271;SHT31;57680;54.292;18.598;2023-05-07T15:12:21;12.30;40.33
70271;SHT31;57680;54.292;18.598;2023-05-07T15:14:46;12.25;39.75
70271;SHT31;57680;54.292;18.598;2023-05-07T15:17:11;12.21;41.51
70271;SHT31;57680;54.292;18.598;2023-05-07T15:19:37;12.23;40.75
70271;SHT31;57680;54.292;18.598;2023-05-07T15:22:02;12.15;40.97
70271;SHT31;57680;54.292;18.598;2023-05-07T15:24:31;12.12;41.96
70271;SHT31;57680;54.292;18.598;2023-05-07T15:26:57;12.13;41.59
70271;SHT31;57680;54.292;18.598;2023-05-07T15:29:22;12.11;42.29
70271;SHT31;57680;54.292;18.598;2023-05-07T15:31:48;12.04;42.63
70271;SHT31;57680;54.292;18.598;2023-05-07T15:34:13;12.06;42.92